Time,TemperatureF,DewpointF,PressureIn,WindDirection,WindDirectionDegrees,WindSpeedMPH,WindSpeedGustMPH,Humidity,HourlyPrecipIn,Conditions,Clouds,dailyrainin,SoftwareType,DateUTC
2013-01-21 00:00:00,44.9,41.6,30.13,NNE,28,0.0,0.0,88,0.00,,,0.00,VWS V14.01,2013-01-21 06:00:00,
2013-01-21 00:02:00,47.7,42.8,30.13,NNE,29,0.0,0.0,83,0.00,,,0.00,VWS V14.01,2013-01-21 06:02:00,
2013-01-21 00:05:00,44.9,41.6,30.13,NNE,28,0.0,0.0,88,0.00,,,0.00,VWS V14.01,2013-01-21 06:05:00,
2013-01-21 00:07:00,46.7,41.5,30.13,NNE,29,0.0,0.0,82,0.00,,,0.00,VWS V14.01,2013-01-21 06:07:00,
2013-01-21 00:10:00,44.4,40.8,30.13,NNE,28,0.0,0.0,87,0.00,,,0.00,VWS V14.01,2013-01-21 06:10:00,
2013-01-21 00:12:00,46.1,41.5,30.13,NNE,29,0.0,0.0,84,0.00,,,0.00,VWS V14.01,2013-01-21 06:12:00,
2013-01-21 00:15:00,44.1,40.5,30.13,NNE,28,0.0,0.0,87,0.00,,,0.00,VWS V14.01,2013-01-21 06:15:00,
2013-01-21 00:17:00,45.9,41.7,30.13,NNE,29,0.0,0.0,85,0.00,,,0.00,VWS V14.01,2013-01-21 06:17:00,
2013-01-21 00:20:00,43.8,40.2,30.13,NNE,28,0.0,0.0,87,0.00,,,0.00,VWS V14.01,2013-01-21 06:20:00,
2013-01-21 00:22:00,45.6,41.7,30.13,NNE,29,0.0,0.0,86,0.00,,,0.00,VWS V14.01,2013-01-21 06:22:00,
2013-01-21 00:25:00,43.5,40.2,30.14,NNE,28,0.0,0.0,88,0.00,,,0.00,VWS V14.01,2013-01-21 06:25:00,
2013-01-21 00:27:00,46.4,42.8,30.13,NNE,29,0.0,0.0,87,0.00,,,0.00,VWS V14.01,2013-01-21 06:27:00,
2013-01-21 00:30:00,43.7,40.7,30.14,NNE,28,0.0,0.0,89,0.00,,,0.00,VWS V14.01,2013-01-21 06:30:00,
2013-01-21 00:32:00,46.5,42.5,30.13,NNE,29,0.0,0.0,86,0.00,,,0.00,VWS V14.01,2013-01-21 06:32:00,
2013-01-21 00:35:00,43.3,40.0,30.14,NNE,28,0.0,0.0,88,0.00,,,0.00,VWS V14.01,2013-01-21 06:35:00,
2013-01-21 00:37:00,46.3,42.3,30.13,NNE,28,0.0,0.0,86,0.00,,,0.00,VWS V14.01,2013-01-21 06:37:00,
2013-01-21 00:40:00,43.1,39.8,30.14,NNE,28,0.0,0.0,88,0.00,,,0.00,VWS V14.01,2013-01-21 06:40:00,
2013-01-21 00:42:00,45.8,41.9,30.13,NNE,28,0.0,0.0,86,0.00,,,0.00,VWS V14.01,2013-01-21 06:42:00,
2013-01-21 00:45:00,43.0,40.0,30.14,NNE,28,0.0,0.0,89,0.00,,,0.00,VWS V14.01,2013-01-21 06:45:00,
2013-01-21 00:47:00,45.4,41.5,30.13,NNE,28,0.0,0.0,86,0.00,,,0.00,VWS V14.01,2013-01-21 06:47:00,
2013-01-21 00:50:00,43.4,40.7,30.14,NNE,28,0.0,0.0,90,0.00,,,0.00,VWS V14.01,2013-01-21 06:50:00,
2013-01-21 00:52:00,45.1,41.2,30.13,NNE,28,0.0,0.0,86,0.00,,,0.00,VWS V14.01,2013-01-21 06:52:00,
2013-01-21 00:55:00,44.1,41.4,30.14,NNE,28,0.0,0.0,90,0.00,,,0.00,VWS V14.01,2013-01-21 06:55:00,
2013-01-21 00:57:00,44.8,41.2,30.13,NNE,28,0.0,0.0,87,0.00,,,0.00,VWS V14.01,2013-01-21 06:57:00,
2013-01-21 01:00:00,44.4,41.7,30.14,NNE,28,0.0,0.0,90,0.00,,,0.00,VWS V14.01,2013-01-21 07:00:00,
2013-01-21 01:02:00,44.9,41.6,30.13,NNE,28,0.0,0.0,88,0.00,,,0.00,VWS V14.01,2013-01-21 07:02:00,
2013-01-21 01:05:00,43.8,40.5,30.15,NNE,28,0.0,1.0,88,0.00,,,0.00,VWS V14.01,2013-01-21 07:05:00,
2013-01-21 01:07:00,44.7,41.1,30.13,NNE,28,0.0,0.0,87,0.00,,,0.00,VWS V14.01,2013-01-21 07:07:00,
2013-01-21 01:10:00,42.9,39.3,30.15,NNE,28,0.0,1.0,87,0.00,,,0.00,VWS V14.01,2013-01-21 07:10:00,
2013-01-21 01:12:00,44.3,40.7,30.14,NNE,28,0.0,0.0,87,0.00,,,0.00,VWS V14.01,2013-01-21 07:12:00,
2013-01-21 01:15:00,42.5,39.2,30.15,NNE,28,0.0,0.0,88,0.00,,,0.00,VWS V14.01,2013-01-21 07:15:00,
2013-01-21 01:17:00,44.0,40.4,30.13,NNE,28,0.0,0.0,87,0.00,,,0.00,VWS V14.01,2013-01-21 07:17:00,
2013-01-21 01:20:00,43.1,40.4,30.15,NNE,28,1.0,1.0,90,0.00,,,0.00,VWS V14.01,2013-01-21 07:20:00,
2013-01-21 01:22:00,43.7,40.1,30.14,NNE,28,0.0,0.0,87,0.00,,,0.00,VWS V14.01,2013-01-21 07:22:00,
2013-01-21 01:25:00,44.8,42.6,30.15,NNE,20,0.0,1.0,92,0.00,,,0.00,VWS V14.01,2013-01-21 07:25:00,
2013-01-21 01:27:00,43.5,40.2,30.14,NNE,28,0.0,0.0,88,0.00,,,0.00,VWS V14.01,2013-01-21 07:27:00,
2013-01-21 01:30:00,45.1,42.1,30.15,NNE,19,0.0,0.0,89,0.00,,,0.00,VWS V14.01,2013-01-21 07:30:00,
2013-01-21 01:32:00,43.6,40.3,30.14,NNE,28,0.0,0.0,88,0.00,,,0.00,VWS V14.01,2013-01-21 07:32:00,
2013-01-21 01:35:00,43.0,39.1,30.15,NNE,21,1.0,1.0,86,0.00,,,0.00,VWS V14.01,2013-01-21 07:35:00,
2013-01-21 01:37:00,43.2,39.9,30.14,NNE,28,0.0,0.0,88,0.00,,,0.00,VWS V14.01,2013-01-21 07:37:00,
2013-01-21 01:40:00,42.0,38.7,30.15,NNE,21,0.0,1.0,88,0.00,,,0.00,VWS V14.01,2013-01-21 07:40:00,
2013-01-21 01:42:00,43.0,39.7,30.14,NNE,28,0.0,0.0,88,0.00,,,0.00,VWS V14.01,2013-01-21 07:42:00,
2013-01-21 01:45:00,42.4,39.7,30.15,NNE,21,0.0,0.0,90,0.00,,,0.00,VWS V14.01,2013-01-21 07:45:00,
2013-01-21 01:47:00,43.1,40.1,30.14,NNE,28,0.0,0.0,89,0.00,,,0.00,VWS V14.01,2013-01-21 07:47:00,
2013-01-21 01:50:00,43.1,40.4,30.15,NNE,21,0.0,0.0,90,0.00,,,0.00,VWS V14.01,2013-01-21 07:50:00,
2013-01-21 01:52:00,43.6,40.9,30.14,NNE,28,0.0,0.0,90,0.00,,,0.00,VWS V14.01,2013-01-21 07:52:00,
2013-01-21 01:55:00,43.6,40.9,30.15,NNE,21,0.0,0.0,90,0.00,,,0.00,VWS V14.01,2013-01-21 07:55:00,
2013-01-21 01:57:00,44.3,41.6,30.14,NNE,28,0.0,0.0,90,0.00,,,0.00,VWS V14.01,2013-01-21 07:57:00,
2013-01-21 02:00:00,42.8,39.8,30.15,NNE,21,0.0,0.0,89,0.00,,,0.00,VWS V14.01,2013-01-21 08:00:00,
2013-01-21 02:02:00,44.3,41.3,30.15,NNE,28,0.0,0.0,89,0.00,,,0.00,VWS V14.01,2013-01-21 08:02:00,
2013-01-21 02:05:00,42.7,40.0,30.15,NNE,19,1.0,1.0,90,0.00,,,0.00,VWS V14.01,2013-01-21 08:05:00,
2013-01-21 02:07:00,43.5,40.2,30.15,NNE,28,0.0,0.0,88,0.00,,,0.00,VWS V14.01,2013-01-21 08:07:00,
2013-01-21 02:10:00,42.7,40.0,30.15,NNE,19,0.0,1.0,90,0.00,,,0.00,VWS V14.01,2013-01-21 08:10:00,
2013-01-21 02:12:00,42.6,39.3,30.15,NNE,28,0.0,0.0,88,0.00,,,0.00,VWS V14.01,2013-01-21 08:12:00,
2013-01-21 02:15:00,42.9,40.2,30.15,NNE,19,0.0,0.0,90,0.00,,,0.00,VWS V14.01,2013-01-21 08:15:00,
2013-01-21 02:17:00,42.6,39.6,30.15,NNE,28,0.0,0.0,89,0.00,,,0.00,VWS V14.01,2013-01-21 08:17:00,
2013-01-21 02:20:00,42.4,39.7,30.15,NNE,19,0.0,0.0,90,0.00,,,0.00,VWS V14.01,2013-01-21 08:20:00,
2013-01-21 02:22:00,43.9,41.5,30.15,NNE,19,0.0,1.0,91,0.00,,,0.00,VWS V14.01,2013-01-21 08:22:00,
2013-01-21 02:25:00,41.9,38.9,30.15,NNE,19,0.0,0.0,89,0.00,,,0.00,VWS V14.01,2013-01-21 08:25:00,
2013-01-21 02:27:00,45.2,42.7,30.15,NNE,19,0.0,0.0,91,0.00,,,0.00,VWS V14.01,2013-01-21 08:27:00,
2013-01-21 02:30:00,42.2,39.5,30.16,NNE,19,0.0,0.0,90,0.00,,,0.00,VWS V14.01,2013-01-21 08:30:00,
2013-01-21 02:32:00,44.3,40.4,30.15,NNE,21,1.0,1.0,86,0.00,,,0.00,VWS V14.01,2013-01-21 08:32:00,
2013-01-21 02:35:00,42.6,40.2,30.15,NNE,20,0.0,0.0,91,0.00,,,0.00,VWS V14.01,2013-01-21 08:35:00,
2013-01-21 02:37:00,42.3,38.7,30.15,NNE,21,0.0,1.0,87,0.00,,,0.00,VWS V14.01,2013-01-21 08:37:00,
2013-01-21 02:40:00,42.4,39.7,30.15,NNE,19,0.0,0.0,90,0.00,,,0.00,VWS V14.01,2013-01-21 08:40:00,
2013-01-21 02:42:00,42.1,39.1,30.15,NNE,21,0.0,0.0,89,0.00,,,0.00,VWS V14.01,2013-01-21 08:42:00,
2013-01-21 02:45:00,41.5,38.5,30.15,NNE,19,0.0,0.0,89,0.00,,,0.00,VWS V14.01,2013-01-21 08:45:00,
2013-01-21 02:47:00,42.9,40.5,30.15,NNE,21,0.0,0.0,91,0.00,,,0.00,VWS V14.01,2013-01-21 08:47:00,
2013-01-21 02:50:00,40.8,38.1,30.15,NNE,19,0.0,0.0,90,0.00,,,0.00,VWS V14.01,2013-01-21 08:50:00,
2013-01-21 02:52:00,43.6,41.2,30.15,NNE,21,0.0,0.0,91,0.00,,,0.00,VWS V14.01,2013-01-21 08:52:00,
2013-01-21 02:55:00,40.8,38.1,30.15,NNE,19,0.0,0.0,90,0.00,,,0.00,VWS V14.01,2013-01-21 08:55:00,
2013-01-21 02:58:00,43.2,40.2,30.15,NNE,21,0.0,0.0,89,0.00,,,0.00,VWS V14.01,2013-01-21 08:58:00,
2013-01-21 03:00:00,40.9,38.5,30.15,NNE,19,0.0,0.0,91,0.00,,,0.00,VWS V14.01,2013-01-21 09:00:00,
2013-01-21 03:02:00,42.7,39.7,30.15,NNE,21,0.0,0.0,89,0.00,,,0.00,VWS V14.01,2013-01-21 09:02:00,
2013-01-21 03:05:00,40.7,38.0,30.15,NNE,19,0.0,0.0,90,0.00,,,0.00,VWS V14.01,2013-01-21 09:05:00,
2013-01-21 03:07:00,42.7,40.0,30.15,NNE,20,0.0,1.0,90,0.00,,,0.00,VWS V14.01,2013-01-21 09:07:00,
2013-01-21 03:10:00,41.1,38.7,30.15,NNE,19,0.0,0.0,91,0.00,,,0.00,VWS V14.01,2013-01-21 09:10:00,
2013-01-21 03:13:00,43.0,40.6,30.15,NNE,19,0.0,0.0,91,0.00,,,0.00,VWS V14.01,2013-01-21 09:13:00,
2013-01-21 03:15:00,41.0,38.6,30.15,NNE,19,0.0,0.0,91,0.00,,,0.00,VWS V14.01,2013-01-21 09:15:00,
2013-01-21 03:18:00,42.6,39.6,30.15,NNE,19,0.0,0.0,89,0.00,,,0.00,VWS V14.01,2013-01-21 09:18:00,
2013-01-21 03:20:00,40.9,38.5,30.15,NNE,19,0.0,1.0,91,0.00,,,0.00,VWS V14.01,2013-01-21 09:20:00,
2013-01-21 03:23:00,42.0,39.0,30.15,NNE,19,0.0,0.0,89,0.00,,,0.00,VWS V14.01,2013-01-21 09:23:00,
2013-01-21 03:25:00,41.1,38.7,30.15,NNE,19,0.0,0.0,91,0.00,,,0.00,VWS V14.01,2013-01-21 09:25:00,
2013-01-21 03:28:00,42.2,39.8,30.15,NNE,19,0.0,0.0,91,0.00,,,0.00,VWS V14.01,2013-01-21 09:28:00,
2013-01-21 03:30:00,40.8,38.4,30.15,NNE,19,0.0,0.0,91,0.00,,,0.00,VWS V14.01,2013-01-21 09:30:00,
2013-01-21 03:32:00,42.2,39.5,30.15,NNE,20,0.0,0.0,90,0.00,,,0.00,VWS V14.01,2013-01-21 09:32:00,
2013-01-21 03:35:00,39.9,37.2,30.15,North,353,2.0,2.0,90,0.00,,,0.00,VWS V14.01,2013-01-21 09:35:00,
2013-01-21 03:37:00,42.6,40.2,30.15,NNE,19,0.0,0.0,91,0.00,,,0.00,VWS V14.01,2013-01-21 09:37:00,
2013-01-21 03:40:00,40.4,38.3,30.15,North,352,1.0,2.0,92,0.00,,,0.00,VWS V14.01,2013-01-21 09:40:00,
2013-01-21 03:42:00,41.9,38.9,30.15,NNE,19,0.0,0.0,89,0.00,,,0.00,VWS V14.01,2013-01-21 09:42:00,
2013-01-21 03:45:00,41.1,39.0,30.16,North,353,0.0,1.0,92,0.00,,,0.00,VWS V14.01,2013-01-21 09:45:00,
2013-01-21 03:47:00,41.1,38.1,30.15,NNE,20,0.0,0.0,89,0.00,,,0.00,VWS V14.01,2013-01-21 09:47:00,
2013-01-21 03:50:00,41.0,38.9,30.16,North,352,0.0,0.0,92,0.00,,,0.00,VWS V14.01,2013-01-21 09:50:00,
2013-01-21 03:52:00,40.9,38.2,30.15,NNE,19,0.0,0.0,90,0.00,,,0.00,VWS V14.01,2013-01-21 09:52:00,
2013-01-21 03:55:00,41.3,39.2,30.16,North,353,0.0,0.0,92,0.00,,,0.00,VWS V14.01,2013-01-21 09:55:00,
2013-01-21 03:57:00,40.9,38.2,30.15,NNE,19,0.0,0.0,90,0.00,,,0.00,VWS V14.01,2013-01-21 09:57:00,
2013-01-21 04:00:00,41.0,38.6,30.16,North,352,0.0,0.0,91,0.00,,,0.00,VWS V14.01,2013-01-21 10:00:00,
2013-01-21 04:02:00,40.7,38.0,30.15,NNE,20,0.0,0.0,90,0.00,,,0.00,VWS V14.01,2013-01-21 10:02:00,
2013-01-21 04:05:00,40.5,38.1,30.16,North,353,0.0,0.0,91,0.00,,,0.00,VWS V14.01,2013-01-21 10:05:00,
2013-01-21 04:07:00,40.9,38.5,30.15,NNE,19,0.0,0.0,91,0.00,,,0.00,VWS V14.01,2013-01-21 10:07:00,
2013-01-21 04:10:00,40.0,37.6,30.16,North,352,0.0,0.0,91,0.00,,,0.00,VWS V14.01,2013-01-21 10:10:00,
2013-01-21 04:12:00,41.1,38.7,30.15,NNE,19,0.0,0.0,91,0.00,,,0.00,VWS V14.01,2013-01-21 10:12:00,
2013-01-21 04:15:00,40.0,37.9,30.16,North,353,0.0,1.0,92,0.00,,,0.00,VWS V14.01,2013-01-21 10:15:00,
2013-01-21 04:17:00,40.9,38.5,30.15,NNE,19,1.0,1.0,91,0.00,,,0.00,VWS V14.01,2013-01-21 10:17:00,
2013-01-21 04:20:00,40.3,38.2,30.16,North,353,0.0,0.0,92,0.00,,,0.00,VWS V14.01,2013-01-21 10:20:00,
2013-01-21 04:22:00,41.0,38.6,30.15,NNE,19,0.0,0.0,91,0.00,,,0.00,VWS V14.01,2013-01-21 10:22:00,
2013-01-21 04:25:00,40.6,38.5,30.16,North,353,1.0,1.0,92,0.00,,,0.00,VWS V14.01,2013-01-21 10:25:00,
2013-01-21 04:27:00,41.1,38.7,30.15,NNE,19,0.0,0.0,91,0.00,,,0.00,VWS V14.01,2013-01-21 10:27:00,
2013-01-21 04:30:00,41.1,39.2,30.16,North,352,0.0,1.0,93,0.00,,,0.00,VWS V14.01,2013-01-21 10:30:00,
2013-01-21 04:32:00,40.3,37.6,30.15,NNE,19,0.0,0.0,90,0.00,,,0.00,VWS V14.01,2013-01-21 10:32:00,
2013-01-21 04:35:00,40.2,37.8,30.17,North,353,0.0,0.0,91,0.00,,,0.00,VWS V14.01,2013-01-21 10:35:00,
2013-01-21 04:37:00,39.9,37.5,30.15,North,353,1.0,2.0,91,0.00,,,0.00,VWS V14.01,2013-01-21 10:37:00,
2013-01-21 04:40:00,39.8,37.7,30.16,North,353,0.0,1.0,92,0.00,,,0.00,VWS V14.01,2013-01-21 10:40:00,
2013-01-21 04:42:00,40.9,39.0,30.16,North,353,0.0,1.0,93,0.00,,,0.00,VWS V14.01,2013-01-21 10:42:00,
2013-01-21 04:45:00,40.7,38.8,30.17,NW,326,1.0,2.0,93,0.00,,,0.00,VWS V14.01,2013-01-21 10:45:00,
2013-01-21 04:47:00,41.1,39.0,30.16,North,353,0.0,0.0,92,0.00,,,0.00,VWS V14.01,2013-01-21 10:47:00,
2013-01-21 04:50:00,41.1,39.2,30.17,NW,326,0.0,1.0,93,0.00,,,0.00,VWS V14.01,2013-01-21 10:50:00,
2013-01-21 04:52:00,41.1,39.0,30.16,North,353,0.0,0.0,92,0.00,,,0.00,VWS V14.01,2013-01-21 10:52:00,
2013-01-21 04:55:00,41.1,39.0,30.17,NW,326,0.0,0.0,92,0.00,,,0.00,VWS V14.01,2013-01-21 10:55:00,
2013-01-21 04:57:00,41.3,39.2,30.16,North,352,0.0,0.0,92,0.00,,,0.00,VWS V14.01,2013-01-21 10:57:00,
2013-01-21 05:00:00,41.2,39.3,30.17,NW,326,0.0,0.0,93,0.00,,,0.00,VWS V14.01,2013-01-21 11:00:00,
2013-01-21 05:02:00,40.8,38.4,30.16,North,352,0.0,0.0,91,0.00,,,0.00,VWS V14.01,2013-01-21 11:02:00,
2013-01-21 05:05:00,40.8,38.7,30.17,NW,326,0.0,1.0,92,0.00,,,0.00,VWS V14.01,2013-01-21 11:05:00,
2013-01-21 05:07:00,40.3,37.9,30.16,North,352,0.0,0.0,91,0.00,,,0.00,VWS V14.01,2013-01-21 11:07:00,
2013-01-21 05:10:00,39.7,37.3,30.17,NNW,327,0.0,1.0,91,0.00,,,0.00,VWS V14.01,2013-01-21 11:10:00,
2013-01-21 05:13:00,39.9,37.5,30.16,North,352,0.0,0.0,91,0.00,,,0.00,VWS V14.01,2013-01-21 11:13:00,
2013-01-21 05:15:00,38.5,36.1,30.18,NNW,328,0.0,0.0,91,0.00,,,0.00,VWS V14.01,2013-01-21 11:15:00,
2013-01-21 05:18:00,40.0,37.9,30.16,North,352,0.0,0.0,92,0.00,,,0.00,VWS V14.01,2013-01-21 11:18:00,
2013-01-21 05:20:00,38.8,36.7,30.18,NNW,327,0.0,0.0,92,0.00,,,0.00,VWS V14.01,2013-01-21 11:20:00,
2013-01-21 05:22:00,40.5,38.4,30.16,North,352,1.0,1.0,92,0.00,,,0.00,VWS V14.01,2013-01-21 11:22:00,
2013-01-21 05:25:00,39.3,37.5,30.18,NNW,327,0.0,0.0,93,0.00,,,0.00,VWS V14.01,2013-01-21 11:25:00,
2013-01-21 05:27:00,41.0,39.1,30.16,North,352,1.0,1.0,93,0.00,,,0.00,VWS V14.01,2013-01-21 11:27:00,
2013-01-21 05:30:00,39.3,37.2,30.18,NNW,327,0.0,0.0,92,0.00,,,0.00,VWS V14.01,2013-01-21 11:30:00,
2013-01-21 05:32:00,41.0,38.9,30.16,North,352,0.0,0.0,92,0.00,,,0.00,VWS V14.01,2013-01-21 11:32:00,
2013-01-21 05:35:00,39.1,37.0,30.18,NNW,327,0.0,0.0,92,0.00,,,0.00,VWS V14.01,2013-01-21 11:35:00,
2013-01-21 05:37:00,39.7,37.3,30.16,North,352,0.0,0.0,91,0.00,,,0.00,VWS V14.01,2013-01-21 11:37:00,
2013-01-21 05:40:00,38.4,36.3,30.18,NNW,328,0.0,0.0,92,0.00,,,0.00,VWS V14.01,2013-01-21 11:40:00,
2013-01-21 05:43:00,40.2,38.3,30.16,NW,326,2.0,2.0,93,0.00,,,0.00,VWS V14.01,2013-01-21 11:43:00,
2013-01-21 05:45:00,38.2,36.1,30.19,NNW,327,0.0,0.0,92,0.00,,,0.00,VWS V14.01,2013-01-21 11:45:00,
2013-01-21 05:48:00,41.0,39.1,30.17,NW,326,0.0,1.0,93,0.00,,,0.00,VWS V14.01,2013-01-21 11:48:00,
2013-01-21 05:50:00,38.1,36.0,30.19,NNW,328,0.0,0.0,92,0.00,,,0.00,VWS V14.01,2013-01-21 11:50:00,
2013-01-21 05:53:00,41.1,39.2,30.17,NW,326,0.0,0.0,93,0.00,,,0.00,VWS V14.01,2013-01-21 11:53:00,
2013-01-21 05:55:00,38.1,36.0,30.19,NW,326,0.0,0.0,92,0.00,,,0.00,VWS V14.01,2013-01-21 11:55:00,
2013-01-21 05:58:00,41.1,39.2,30.17,NW,326,0.0,0.0,93,0.00,,,0.00,VWS V14.01,2013-01-21 11:58:00,
2013-01-21 06:00:00,38.3,36.5,30.19,NNW,327,0.0,0.0,93,0.00,,,0.00,VWS V14.01,2013-01-21 12:00:00,
2013-01-21 06:03:00,41.1,39.0,30.17,NW,326,0.0,1.0,92,0.00,,,0.00,VWS V14.01,2013-01-21 12:03:00,
2013-01-21 06:05:00,38.8,37.0,30.19,NNW,327,0.0,0.0,93,0.00,,,0.00,VWS V14.01,2013-01-21 12:05:00,
2013-01-21 06:08:00,40.5,38.4,30.17,NW,326,0.0,1.0,92,0.00,,,0.00,VWS V14.01,2013-01-21 12:08:00,
2013-01-21 06:10:00,39.3,37.5,30.19,NNW,330,2.0,2.0,93,0.00,,,0.00,VWS V14.01,2013-01-21 12:10:00,
2013-01-21 06:13:00,39.0,36.3,30.17,NNW,327,0.0,0.0,90,0.00,,,0.00,VWS V14.01,2013-01-21 12:13:00,
2013-01-21 06:15:00,39.5,37.7,30.20,NNW,345,1.0,2.0,93,0.00,,,0.00,VWS V14.01,2013-01-21 12:15:00,
2013-01-21 06:18:00,38.5,36.1,30.17,NNW,328,0.0,0.0,91,0.00,,,0.00,VWS V14.01,2013-01-21 12:18:00,
2013-01-21 06:20:00,39.8,37.9,30.20,NNW,346,0.0,2.0,93,0.00,,,0.00,VWS V14.01,2013-01-21 12:20:00,
2013-01-21 06:23:00,39.1,37.2,30.18,NNW,327,0.0,0.0,93,0.00,,,0.00,VWS V14.01,2013-01-21 12:23:00,
2013-01-21 06:25:00,39.6,37.8,30.20,NNW,345,0.0,0.0,93,0.00,,,0.00,VWS V14.01,2013-01-21 12:25:00,
2013-01-21 06:28:00,39.2,37.1,30.18,NNW,328,0.0,0.0,92,0.00,,,0.00,VWS V14.01,2013-01-21 12:28:00,
2013-01-21 06:30:00,39.1,37.0,30.20,NNW,346,0.0,0.0,92,0.00,,,0.00,VWS V14.01,2013-01-21 12:30:00,
2013-01-21 06:33:00,39.2,37.1,30.18,NNW,327,0.0,0.0,92,0.00,,,0.00,VWS V14.01,2013-01-21 12:33:00,
2013-01-21 06:35:00,38.4,36.3,30.20,NNW,346,0.0,0.0,92,0.00,,,0.00,VWS V14.01,2013-01-21 12:35:00,
2013-01-21 06:38:00,38.7,36.6,30.18,NNW,327,0.0,0.0,92,0.00,,,0.00,VWS V14.01,2013-01-21 12:38:00,
2013-01-21 06:40:00,38.0,35.9,30.21,NNW,345,1.0,1.0,92,0.00,,,0.00,VWS V14.01,2013-01-21 12:40:00,
2013-01-21 06:43:00,38.3,36.2,30.18,NNW,328,0.0,0.0,92,0.00,,,0.00,VWS V14.01,2013-01-21 12:43:00,
2013-01-21 06:45:00,38.5,36.7,30.21,NNW,346,0.0,1.0,93,0.00,,,0.00,VWS V14.01,2013-01-21 12:45:00,
2013-01-21 06:47:00,38.2,36.1,30.19,NNW,327,0.0,0.0,92,0.00,,,0.00,VWS V14.01,2013-01-21 12:47:00,
2013-01-21 06:50:00,38.6,36.5,30.21,NNW,345,0.0,0.0,92,0.00,,,0.00,VWS V14.01,2013-01-21 12:50:00,
2013-01-21 06:53:00,38.1,36.0,30.19,NNW,328,0.0,0.0,92,0.00,,,0.00,VWS V14.01,2013-01-21 12:53:00,
2013-01-21 06:55:00,38.6,36.5,30.21,NNW,346,0.0,0.0,92,0.00,,,0.00,VWS V14.01,2013-01-21 12:55:00,
2013-01-21 06:57:00,38.1,36.0,30.19,NNW,328,0.0,0.0,92,0.00,,,0.00,VWS V14.01,2013-01-21 12:57:00,
2013-01-21 07:00:00,39.9,38.0,30.21,NNW,346,0.0,0.0,93,0.00,,,0.00,VWS V14.01,2013-01-21 13:00:00,
2013-01-21 07:02:00,38.6,36.8,30.19,NNW,327,0.0,0.0,93,0.00,,,0.00,VWS V14.01,2013-01-21 13:02:00,
2013-01-21 07:05:00,40.9,39.0,30.21,NNW,345,0.0,0.0,93,0.00,,,0.00,VWS V14.01,2013-01-21 13:05:00,
2013-01-21 07:08:00,39.1,37.2,30.19,NNW,327,0.0,0.0,93,0.00,,,0.00,VWS V14.01,2013-01-21 13:08:00,
2013-01-21 07:10:00,41.5,39.3,30.22,NNW,345,0.0,0.0,92,0.00,,,0.00,VWS V14.01,2013-01-21 13:10:00,
2013-01-21 07:12:00,39.5,37.7,30.19,NNW,343,2.0,2.0,93,0.00,,,0.00,VWS V14.01,2013-01-21 13:12:00,
2013-01-21 07:15:00,42.0,39.6,30.21,NNW,346,0.0,1.0,91,0.00,,,0.00,VWS V14.01,2013-01-21 13:15:00,
2013-01-21 07:17:00,39.7,37.8,30.19,NNW,345,0.0,2.0,93,0.00,,,0.00,VWS V14.01,2013-01-21 13:17:00,
2013-01-21 07:20:00,42.5,40.1,30.22,NNW,346,0.0,1.0,91,0.00,,,0.00,VWS V14.01,2013-01-21 13:20:00,
2013-01-21 07:23:00,39.8,38.0,30.20,NNW,345,0.0,0.0,93,0.00,,,0.00,VWS V14.01,2013-01-21 13:23:00,
2013-01-21 07:25:00,43.0,40.6,30.22,NNW,346,0.0,1.0,91,0.00,,,0.00,VWS V14.01,2013-01-21 13:25:00,
2013-01-21 07:27:00,39.3,37.2,30.20,NNW,345,0.0,0.0,92,0.00,,,0.00,VWS V14.01,2013-01-21 13:27:00,
2013-01-21 07:30:00,44.1,41.9,30.22,NNW,345,0.0,0.0,92,0.00,,,0.00,VWS V14.01,2013-01-21 13:30:00,
2013-01-21 07:32:00,38.7,36.6,30.20,NNW,346,0.0,0.0,92,0.00,,,0.00,VWS V14.01,2013-01-21 13:32:00,
2013-01-21 07:35:00,45.7,43.5,30.22,NNW,346,0.0,0.0,92,0.00,,,0.00,VWS V14.01,2013-01-21 13:35:00,
2013-01-21 07:37:00,38.1,36.0,30.21,NNW,346,0.0,0.0,92,0.00,,,0.00,VWS V14.01,2013-01-21 13:37:00,
2013-01-21 07:40:00,46.3,43.8,30.22,NNW,345,0.0,1.0,91,0.00,,,0.00,VWS V14.01,2013-01-21 13:40:00,
2013-01-21 07:42:00,38.2,36.1,30.21,NNW,345,0.0,1.0,92,0.00,,,0.00,VWS V14.01,2013-01-21 13:42:00,
2013-01-21 07:45:00,47.3,44.8,30.23,NNW,345,0.0,0.0,91,0.00,,,0.00,VWS V14.01,2013-01-21 13:45:00,
2013-01-21 07:47:00,38.6,36.8,30.21,NNW,346,0.0,0.0,93,0.00,,,0.00,VWS V14.01,2013-01-21 13:47:00,
2013-01-21 07:50:00,47.7,44.3,30.23,NNW,345,1.0,2.0,88,0.00,,,0.00,VWS V14.01,2013-01-21 13:50:00,
2013-01-21 07:52:00,38.5,36.4,30.21,NNW,346,0.0,0.0,92,0.00,,,0.00,VWS V14.01,2013-01-21 13:52:00,
2013-01-21 07:55:00,46.9,43.5,30.23,North,1,0.0,3.0,88,0.00,,,0.00,VWS V14.01,2013-01-21 13:55:00,
2013-01-21 07:57:00,39.1,37.2,30.21,NNW,346,0.0,0.0,93,0.00,,,0.00,VWS V14.01,2013-01-21 13:57:00,
2013-01-21 08:00:00,47.5,44.4,30.23,North,1,0.0,0.0,89,0.00,,,0.00,VWS V14.01,2013-01-21 14:00:00,
2013-01-21 08:02:00,40.3,38.4,30.21,NNW,346,0.0,0.0,93,0.00,,,0.00,VWS V14.01,2013-01-21 14:02:00,
2013-01-21 08:05:00,48.8,45.4,30.23,North,1,0.0,1.0,88,0.00,,,0.00,VWS V14.01,2013-01-21 14:05:00,
2013-01-21 08:07:00,41.3,39.2,30.21,NNW,345,0.0,0.0,92,0.00,,,0.00,VWS V14.01,2013-01-21 14:07:00,
2013-01-21 08:10:00,50.1,46.7,30.23,North,1,0.0,1.0,88,0.00,,,0.00,VWS V14.01,2013-01-21 14:10:00,
2013-01-21 08:12:00,41.6,39.2,30.21,NNW,346,0.0,0.0,91,0.00,,,0.00,VWS V14.01,2013-01-21 14:12:00,
2013-01-21 08:15:00,51.4,47.4,30.24,West,281,2.0,2.0,86,0.00,,,0.00,VWS V14.01,2013-01-21 14:15:00,
2013-01-21 08:17:00,42.2,39.8,30.22,NNW,345,1.0,1.0,91,0.00,,,0.00,VWS V14.01,2013-01-21 14:17:00,
2013-01-21 08:20:00,51.8,46.5,30.24,NW,325,0.0,4.0,82,0.00,,,0.00,VWS V14.01,2013-01-21 14:20:00,
2013-01-21 08:22:00,42.7,40.3,30.22,NNW,346,0.0,1.0,91,0.00,,,0.00,VWS V14.01,2013-01-21 14:22:00,
2013-01-21 08:25:00,52.3,46.0,30.24,NNW,331,0.0,0.0,79,0.00,,,0.00,VWS V14.01,2013-01-21 14:25:00,
2013-01-21 08:27:00,43.4,41.0,30.22,NNW,345,0.0,0.0,91,0.00,,,0.00,VWS V14.01,2013-01-21 14:27:00,
2013-01-21 08:30:00,53.2,47.2,30.24,NW,326,0.0,0.0,80,0.00,,,0.00,VWS V14.01,2013-01-21 14:30:00,
2013-01-21 08:32:00,45.0,42.8,30.22,NNW,345,0.0,0.0,92,0.00,,,0.00,VWS V14.01,2013-01-21 14:32:00,
2013-01-21 08:35:00,54.0,47.0,30.25,SW,236,3.0,3.0,77,0.00,,,0.00,VWS V14.01,2013-01-21 14:35:00,
2013-01-21 08:37:00,46.1,43.6,30.22,NNW,345,0.0,1.0,91,0.00,,,0.00,VWS V14.01,2013-01-21 14:37:00,
2013-01-21 08:40:00,54.3,46.6,30.25,NW,320,0.0,3.0,75,0.00,,,0.00,VWS V14.01,2013-01-21 14:40:00,
2013-01-21 08:42:00,46.7,44.2,30.22,NNW,346,0.0,0.0,91,0.00,,,0.00,VWS V14.01,2013-01-21 14:42:00,
2013-01-21 08:45:00,54.5,47.1,30.25,NW,304,0.0,3.0,76,0.00,,,0.00,VWS V14.01,2013-01-21 14:45:00,
2013-01-21 08:47:00,47.7,44.9,30.23,NNW,345,1.0,1.0,90,0.00,,,0.00,VWS V14.01,2013-01-21 14:47:00,
2013-01-21 08:50:00,54.9,46.8,30.25,NNW,331,3.0,4.0,74,0.00,,,0.00,VWS V14.01,2013-01-21 14:50:00,
2013-01-21 08:52:00,47.2,43.5,30.23,North,1,2.0,3.0,87,0.00,,,0.00,VWS V14.01,2013-01-21 14:52:00,
2013-01-21 08:55:00,55.3,47.2,30.25,NW,320,0.0,3.0,74,0.00,,,0.00,VWS V14.01,2013-01-21 14:55:00,
2013-01-21 08:57:00,47.0,43.6,30.23,North,2,0.0,0.0,88,0.00,,,0.00,VWS V14.01,2013-01-21 14:57:00,
2013-01-21 09:00:00,56.4,47.5,30.25,NW,315,4.0,4.0,72,0.00,,,0.00,VWS V14.01,2013-01-21 15:00:00,
2013-01-21 09:02:00,48.1,45.0,30.23,North,2,0.0,1.0,89,0.00,,,0.00,VWS V14.01,2013-01-21 15:02:00,
2013-01-21 09:05:00,56.8,48.2,30.25,NW,319,3.0,4.0,73,0.00,,,0.00,VWS V14.01,2013-01-21 15:05:00,
2013-01-21 09:07:00,49.3,45.9,30.23,North,1,0.0,1.0,88,0.00,,,0.00,VWS V14.01,2013-01-21 15:07:00,
2013-01-21 09:10:00,57.6,47.9,30.26,NNW,343,4.0,7.0,70,0.00,,,0.00,VWS V14.01,2013-01-21 15:10:00,
2013-01-21 09:12:00,50.7,46.7,30.23,North,1,0.0,1.0,86,0.00,,,0.00,VWS V14.01,2013-01-21 15:12:00,
2013-01-21 09:15:00,57.2,47.5,30.25,NNW,333,2.0,6.0,70,0.00,,,0.00,VWS V14.01,2013-01-21 15:15:00,
2013-01-21 09:17:00,51.7,46.7,30.23,SW,225,3.0,4.0,83,0.00,,,0.00,VWS V14.01,2013-01-21 15:17:00,
2013-01-21 09:20:00,57.5,47.8,30.25,NW,324,6.0,6.0,70,0.00,,,0.00,VWS V14.01,2013-01-21 15:20:00,
2013-01-21 09:22:00,52.2,46.9,30.24,NNW,332,0.0,0.0,82,0.00,,,0.00,VWS V14.01,2013-01-21 15:22:00,
2013-01-21 09:25:00,57.8,47.7,30.25,NW,311,1.0,7.0,69,0.00,,,0.00,VWS V14.01,2013-01-21 15:25:00,
2013-01-21 09:27:00,52.4,46.4,30.24,NNW,331,0.0,0.0,80,0.00,,,0.00,VWS V14.01,2013-01-21 15:27:00,
2013-01-21 09:30:00,58.4,47.1,30.25,North,1,3.0,6.0,66,0.00,,,0.00,VWS V14.01,2013-01-21 15:30:00,
2013-01-21 09:32:00,53.7,47.0,30.24,SW,225,2.0,3.0,78,0.00,,,0.00,VWS V14.01,2013-01-21 15:32:00,
2013-01-21 09:35:00,59.2,47.5,30.25,NNW,332,5.0,7.0,65,0.00,,,0.00,VWS V14.01,2013-01-21 15:35:00,
2013-01-21 09:37:00,54.2,46.8,30.25,SW,225,1.0,3.0,76,0.00,,,0.00,VWS V14.01,2013-01-21 15:37:00,
2013-01-21 09:40:00,59.8,47.2,30.26,North,7,1.0,6.0,63,0.00,,,0.00,VWS V14.01,2013-01-21 15:40:00,
2013-01-21 09:42:00,54.2,46.5,30.25,NW,304,0.0,3.0,75,0.00,,,0.00,VWS V14.01,2013-01-21 15:42:00,
2013-01-21 09:45:00,60.8,47.7,30.25,North,352,3.0,5.0,62,0.00,,,0.00,VWS V14.01,2013-01-21 15:45:00,
2013-01-21 09:47:00,54.9,47.1,30.25,NW,317,1.0,3.0,75,0.00,,,0.00,VWS V14.01,2013-01-21 15:47:00,
2013-01-21 09:50:00,61.6,47.6,30.25,NNW,347,6.0,8.0,60,0.00,,,0.00,VWS V14.01,2013-01-21 15:50:00,
2013-01-21 09:52:00,54.8,46.7,30.25,North,2,1.0,3.0,74,0.00,,,0.00,VWS V14.01,2013-01-21 15:52:00,
2013-01-21 09:55:00,61.9,47.0,30.25,NE,37,4.0,9.0,58,0.00,,,0.00,VWS V14.01,2013-01-21 15:55:00,
2013-01-21 09:57:00,55.8,48.0,30.25,WNW,284,2.0,2.0,75,0.00,,,0.00,VWS V14.01,2013-01-21 15:57:00,
2013-01-21 10:00:00,62.0,45.2,30.25,NNE,18,3.0,10.0,54,0.00,,,0.00,VWS V14.01,2013-01-21 16:00:00,
2013-01-21 10:02:00,56.4,47.1,30.25,NNW,332,0.0,4.0,71,0.00,,,0.00,VWS V14.01,2013-01-21 16:02:00,
2013-01-21 10:05:00,62.2,44.4,30.25,NNE,23,7.0,8.0,52,0.00,,,0.00,VWS V14.01,2013-01-21 16:05:00,
2013-01-21 10:07:00,57.3,48.0,30.25,SSW,201,0.0,3.0,71,0.00,,,0.00,VWS V14.01,2013-01-21 16:07:00,
2013-01-21 10:10:00,62.2,43.9,30.25,NNE,33,7.0,8.0,51,0.00,,,0.00,VWS V14.01,2013-01-21 16:10:00,
2013-01-21 10:12:00,57.4,47.7,30.25,NW,315,4.0,6.0,70,0.00,,,0.00,VWS V14.01,2013-01-21 16:12:00,
2013-01-21 10:15:00,62.4,43.5,30.25,NNE,30,4.0,9.0,50,0.00,,,0.00,VWS V14.01,2013-01-21 16:15:00,
2013-01-21 10:17:00,57.2,47.5,30.25,NW,306,3.0,4.0,70,0.00,,,0.00,VWS V14.01,2013-01-21 16:17:00,
2013-01-21 10:20:00,62.8,43.9,30.25,NNE,31,3.0,6.0,50,0.00,,,0.00,VWS V14.01,2013-01-21 16:20:00,
2013-01-21 10:22:00,57.6,47.5,30.25,North,349,4.0,7.0,69,0.00,,,0.00,VWS V14.01,2013-01-21 16:22:00,
2013-01-21 10:25:00,63.2,44.3,30.24,North,11,6.0,6.0,50,0.00,,,0.00,VWS V14.01,2013-01-21 16:25:00,
2013-01-21 10:27:00,58.1,48.4,30.25,NNW,348,4.0,5.0,70,0.00,,,0.00,VWS V14.01,2013-01-21 16:27:00,
2013-01-21 10:30:00,63.6,45.2,30.24,North,8,6.0,8.0,51,0.00,,,0.00,VWS V14.01,2013-01-21 16:30:00,
2013-01-21 10:32:00,58.6,47.3,30.25,NNE,21,2.0,7.0,66,0.00,,,0.00,VWS V14.01,2013-01-21 16:32:00,
2013-01-21 10:35:00,63.4,43.9,30.24,NE,46,4.0,8.0,49,0.00,,,0.00,VWS V14.01,2013-01-21 16:35:00,
2013-01-21 10:37:00,59.4,47.2,30.25,NW,326,2.0,6.0,64,0.00,,,0.00,VWS V14.01,2013-01-21 16:37:00,
2013-01-21 10:40:00,63.4,44.5,30.24,NE,36,6.0,10.0,50,0.00,,,0.00,VWS V14.01,2013-01-21 16:40:00,
2013-01-21 10:42:00,60.1,47.5,30.26,North,8,1.0,3.0,63,0.00,,,0.00,VWS V14.01,2013-01-21 16:42:00,
2013-01-21 10:45:00,63.4,44.5,30.24,North,5,6.0,6.0,50,0.00,,,0.00,VWS V14.01,2013-01-21 16:45:00,
2013-01-21 10:47:00,61.2,48.1,30.25,North,352,1.0,3.0,62,0.00,,,0.00,VWS V14.01,2013-01-21 16:47:00,
2013-01-21 10:50:00,63.3,44.4,30.24,ENE,69,3.0,7.0,50,0.00,,,0.00,VWS V14.01,2013-01-21 16:50:00,
2013-01-21 10:52:00,61.8,47.3,30.25,NNE,19,4.0,9.0,59,0.00,,,0.00,VWS V14.01,2013-01-21 16:52:00,
2013-01-21 10:55:00,63.7,44.7,30.23,NNE,25,4.0,7.0,50,0.00,,,0.00,VWS V14.01,2013-01-21 16:55:00,
2013-01-21 10:57:00,62.0,46.6,30.25,ENE,75,6.0,9.0,57,0.00,,,0.00,VWS V14.01,2013-01-21 16:57:00,
2013-01-21 11:00:00,63.8,44.3,30.23,NNE,32,0.0,5.0,49,0.00,,,0.00,VWS V14.01,2013-01-21 17:00:00,
2013-01-21 11:02:00,62.0,45.2,30.25,NNE,19,6.0,7.0,54,0.00,,,0.00,VWS V14.01,2013-01-21 17:02:00,
2013-01-21 11:05:00,64.2,44.7,30.23,ENE,78,3.0,5.0,49,0.00,,,0.00,VWS V14.01,2013-01-21 17:05:00,
2013-01-21 11:07:00,62.2,44.4,30.25,NNE,25,2.0,7.0,52,0.00,,,0.00,VWS V14.01,2013-01-21 17:07:00,
2013-01-21 11:10:00,64.2,44.7,30.23,NNE,28,6.0,8.0,49,0.00,,,0.00,VWS V14.01,2013-01-21 17:10:00,
2013-01-21 11:12:00,62.1,43.3,30.25,NE,36,4.0,9.0,50,0.00,,,0.00,VWS V14.01,2013-01-21 17:12:00,
2013-01-21 11:15:00,64.1,45.1,30.23,North,11,3.0,11.0,50,0.00,,,0.00,VWS V14.01,2013-01-21 17:15:00,
2013-01-21 11:17:00,62.5,43.1,30.24,North,351,4.0,6.0,49,0.00,,,0.00,VWS V14.01,2013-01-21 17:17:00,
2013-01-21 11:20:00,64.1,44.6,30.23,North,360,2.0,7.0,49,0.00,,,0.00,VWS V14.01,2013-01-21 17:20:00,
2013-01-21 11:22:00,63.0,43.6,30.25,NE,52,2.0,5.0,49,0.00,,,0.00,VWS V14.01,2013-01-21 17:22:00,
2013-01-21 11:25:00,64.6,45.0,30.22,NE,50,3.0,5.0,49,0.00,,,0.00,VWS V14.01,2013-01-21 17:25:00,
2013-01-21 11:27:00,63.2,44.3,30.24,North,8,5.0,6.0,50,0.00,,,0.00,VWS V14.01,2013-01-21 17:27:00,
2013-01-21 11:30:00,64.5,44.9,30.22,North,4,4.0,7.0,49,0.00,,,0.00,VWS V14.01,2013-01-21 17:30:00,
2013-01-21 11:32:00,63.5,44.0,30.24,NNE,18,4.0,8.0,49,0.00,,,0.00,VWS V14.01,2013-01-21 17:32:00,
2013-01-21 11:35:00,64.8,44.7,30.22,East,87,6.0,9.0,48,0.00,,,0.00,VWS V14.01,2013-01-21 17:35:00,
2013-01-21 11:37:00,63.4,44.5,30.24,NNE,19,4.0,10.0,50,0.00,,,0.00,VWS V14.01,2013-01-21 17:37:00,
2013-01-21 11:40:00,65.0,44.8,30.22,East,82,0.0,6.0,48,0.00,,,0.00,VWS V14.01,2013-01-21 17:40:00,
2013-01-21 11:42:00,63.3,44.4,30.24,NNE,30,3.0,6.0,50,0.00,,,0.00,VWS V14.01,2013-01-21 17:42:00,
2013-01-21 11:45:00,65.4,44.7,30.21,NW,315,4.0,7.0,47,0.00,,,0.00,VWS V14.01,2013-01-21 17:45:00,
2013-01-21 11:47:00,63.5,44.5,30.24,NE,36,6.0,6.0,50,0.00,,,0.00,VWS V14.01,2013-01-21 17:47:00,
2013-01-21 11:50:00,65.4,45.2,30.21,NNW,347,2.0,7.0,48,0.00,,,0.00,VWS V14.01,2013-01-21 17:50:00,
2013-01-21 11:52:00,63.3,44.4,30.24,North,6,2.0,3.0,50,0.00,,,0.00,VWS V14.01,2013-01-21 17:52:00,
2013-01-21 11:55:00,65.5,44.2,30.21,North,351,4.0,11.0,46,0.00,,,0.00,VWS V14.01,2013-01-21 17:55:00,
2013-01-21 11:57:00,63.7,44.7,30.23,NNE,25,4.0,5.0,50,0.00,,,0.00,VWS V14.01,2013-01-21 17:57:00,
2013-01-21 12:00:00,65.5,45.3,30.21,NNE,33,5.0,6.0,48,0.00,,,0.00,VWS V14.01,2013-01-21 18:00:00,
2013-01-21 12:02:00,64.1,45.1,30.23,NE,46,3.0,4.0,50,0.00,,,0.00,VWS V14.01,2013-01-21 18:02:00,
2013-01-21 12:05:00,65.5,44.8,30.20,NNW,343,7.0,9.0,47,0.00,,,0.00,VWS V14.01,2013-01-21 18:05:00,
2013-01-21 12:07:00,64.2,44.7,30.23,ENE,78,3.0,3.0,49,0.00,,,0.00,VWS V14.01,2013-01-21 18:07:00,
2013-01-21 12:10:00,65.6,44.3,30.20,NNE,19,1.0,10.0,46,0.00,,,0.00,VWS V14.01,2013-01-21 18:10:00,
2013-01-21 12:12:00,64.3,44.8,30.23,North,5,11.0,11.0,49,0.00,,,0.00,VWS V14.01,2013-01-21 18:12:00,
2013-01-21 12:15:00,65.9,44.6,30.20,NNE,23,6.0,10.0,46,0.00,,,0.00,VWS V14.01,2013-01-21 18:15:00,
2013-01-21 12:17:00,64.2,45.2,30.23,NNE,19,4.0,6.0,50,0.00,,,0.00,VWS V14.01,2013-01-21 18:17:00,
2013-01-21 12:20:00,65.8,44.5,30.19,ENE,73,2.0,7.0,46,0.00,,,0.00,VWS V14.01,2013-01-21 18:20:00,
2013-01-21 12:22:00,64.1,44.6,30.23,NW,326,0.0,2.0,49,0.00,,,0.00,VWS V14.01,2013-01-21 18:22:00,
2013-01-21 12:25:00,66.3,44.3,30.19,North,357,4.0,7.0,45,0.00,,,0.00,VWS V14.01,2013-01-21 18:25:00,
2013-01-21 12:27:00,64.7,45.1,30.22,North,353,4.0,7.0,49,0.00,,,0.00,VWS V14.01,2013-01-21 18:27:00,
2013-01-21 12:30:00,66.6,45.2,30.19,North,5,6.0,8.0,46,0.00,,,0.00,VWS V14.01,2013-01-21 18:30:00,
2013-01-21 12:32:00,64.6,45.0,30.22,NNE,28,1.0,4.0,49,0.00,,,0.00,VWS V14.01,2013-01-21 18:32:00,
2013-01-21 12:35:00,66.7,44.7,30.19,NNE,18,5.0,7.0,45,0.00,,,0.00,VWS V14.01,2013-01-21 18:35:00,
2013-01-21 12:37:00,64.7,44.6,30.22,NE,53,4.0,6.0,48,0.00,,,0.00,VWS V14.01,2013-01-21 18:37:00,
2013-01-21 12:40:00,66.8,44.2,30.19,North,2,0.0,6.0,44,0.00,,,0.00,VWS V14.01,2013-01-21 18:40:00,
2013-01-21 12:42:00,65.2,45.6,30.22,NE,42,0.0,1.0,49,0.00,,,0.00,VWS V14.01,2013-01-21 18:42:00,
2013-01-21 12:45:00,67.3,44.1,30.19,East,92,2.0,8.0,43,0.00,,,0.00,VWS V14.01,2013-01-21 18:45:00,
2013-01-21 12:47:00,65.2,44.5,30.22,NW,322,4.0,4.0,47,0.00,,,0.00,VWS V14.01,2013-01-21 18:47:00,
2013-01-21 12:50:00,66.9,44.3,30.18,NNE,16,6.0,6.0,44,0.00,,,0.00,VWS V14.01,2013-01-21 18:50:00,
2013-01-21 12:52:00,65.5,44.8,30.21,NNE,28,4.0,6.0,47,0.00,,,0.00,VWS V14.01,2013-01-21 18:52:00,
2013-01-21 12:55:00,67.5,45.4,30.18,SE,129,11.0,15.0,45,0.00,,,0.00,VWS V14.01,2013-01-21 18:55:00,
2013-01-21 12:57:00,65.4,44.7,30.21,NNE,32,2.0,5.0,47,0.00,,,0.00,VWS V14.01,2013-01-21 18:57:00,
2013-01-21 13:00:00,67.5,44.2,30.18,East,80,5.0,11.0,43,0.00,,,0.00,VWS V14.01,2013-01-21 19:00:00,
2013-01-21 13:02:00,65.6,45.4,30.21,NNE,28,6.0,9.0,48,0.00,,,0.00,VWS V14.01,2013-01-21 19:02:00,
2013-01-21 13:05:00,67.5,45.4,30.18,SE,142,1.0,5.0,45,0.00,,,0.00,VWS V14.01,2013-01-21 19:05:00,
2013-01-21 13:07:00,65.5,45.3,30.20,North,352,6.0,10.0,48,0.00,,,0.00,VWS V14.01,2013-01-21 19:07:00,
2013-01-21 13:10:00,67.8,43.9,30.18,ESE,113,6.0,8.0,42,0.00,,,0.00,VWS V14.01,2013-01-21 19:10:00,
2013-01-21 13:12:00,65.9,44.6,30.20,North,9,8.0,10.0,46,0.00,,,0.00,VWS V14.01,2013-01-21 19:12:00,
2013-01-21 13:15:00,68.0,45.3,30.17,ESE,102,4.0,6.0,44,0.00,,,0.00,VWS V14.01,2013-01-21 19:15:00,
2013-01-21 13:17:00,66.0,44.7,30.20,NNE,24,4.0,7.0,46,0.00,,,0.00,VWS V14.01,2013-01-21 19:17:00,
2013-01-21 13:20:00,67.9,43.4,30.17,ESE,104,3.0,5.0,41,0.00,,,0.00,VWS V14.01,2013-01-21 19:20:00,
2013-01-21 13:22:00,65.8,44.5,30.19,NNE,24,3.0,3.0,46,0.00,,,0.00,VWS V14.01,2013-01-21 19:22:00,
2013-01-21 13:25:00,68.0,44.7,30.17,ENE,74,4.0,4.0,43,0.00,,,0.00,VWS V14.01,2013-01-21 19:25:00,
2013-01-21 13:27:00,66.3,44.9,30.19,NNW,345,2.0,4.0,46,0.00,,,0.00,VWS V14.01,2013-01-21 19:27:00,
2013-01-21 13:30:00,68.1,44.2,30.17,SSE,161,6.0,8.0,42,0.00,,,0.00,VWS V14.01,2013-01-21 19:30:00,
2013-01-21 13:32:00,66.6,44.0,30.19,NNE,19,3.0,7.0,44,0.00,,,0.00,VWS V14.01,2013-01-21 19:32:00,
2013-01-21 13:35:00,67.9,43.4,30.17,ESE,122,7.0,10.0,41,0.00,,,0.00,VWS V14.01,2013-01-21 19:35:00,
2013-01-21 13:37:00,66.7,44.7,30.19,North,2,3.0,6.0,45,0.00,,,0.00,VWS V14.01,2013-01-21 19:37:00,
2013-01-21 13:40:00,67.8,43.9,30.17,SE,127,3.0,9.0,42,0.00,,,0.00,VWS V14.01,2013-01-21 19:40:00,
2013-01-21 13:42:00,67.1,44.5,30.19,East,99,4.0,5.0,44,0.00,,,0.00,VWS V14.01,2013-01-21 19:42:00,
2013-01-21 13:45:00,67.9,44.0,30.17,ESE,112,7.0,7.0,42,0.00,,,0.00,VWS V14.01,2013-01-21 19:45:00,
2013-01-21 13:47:00,67.0,44.4,30.18,East,82,2.0,5.0,44,0.00,,,0.00,VWS V14.01,2013-01-21 19:47:00,
2013-01-21 13:50:00,68.0,44.1,30.17,ESE,108,6.0,10.0,42,0.00,,,0.00,VWS V14.01,2013-01-21 19:50:00,
2013-01-21 13:52:00,67.2,44.6,30.18,NNE,25,5.0,6.0,44,0.00,,,0.00,VWS V14.01,2013-01-21 19:52:00,
2013-01-21 13:55:00,68.0,43.5,30.17,East,87,1.0,7.0,41,0.00,,,0.00,VWS V14.01,2013-01-21 19:55:00,
2013-01-21 13:57:00,67.6,43.7,30.18,SE,132,5.0,11.0,42,0.00,,,0.00,VWS V14.01,2013-01-21 19:57:00,
2013-01-21 14:00:00,67.9,43.4,30.17,SSE,156,4.0,8.0,41,0.00,,,0.00,VWS V14.01,2013-01-21 20:00:00,
2013-01-21 14:02:00,67.4,44.2,30.18,ESE,111,2.0,5.0,43,0.00,,,0.00,VWS V14.01,2013-01-21 20:02:00,
2013-01-21 14:05:00,67.9,44.0,30.17,SSE,163,6.0,7.0,42,0.00,,,0.00,VWS V14.01,2013-01-21 20:05:00,
2013-01-21 14:07:00,67.8,44.5,30.18,ESE,116,4.0,5.0,43,0.00,,,0.00,VWS V14.01,2013-01-21 20:07:00,
2013-01-21 14:10:00,68.2,43.6,30.17,SW,215,4.0,6.0,41,0.00,,,0.00,VWS V14.01,2013-01-21 20:10:00,
2013-01-21 14:12:00,67.7,44.4,30.18,SSE,156,4.0,6.0,43,0.00,,,0.00,VWS V14.01,2013-01-21 20:12:00,
2013-01-21 14:15:00,68.7,44.1,30.17,East,101,5.0,6.0,41,0.00,,,0.00,VWS V14.01,2013-01-21 20:15:00,
2013-01-21 14:17:00,68.1,44.8,30.17,ESE,105,5.0,5.0,43,0.00,,,0.00,VWS V14.01,2013-01-21 20:17:00,
2013-01-21 14:20:00,68.4,43.8,30.17,NE,37,0.0,5.0,41,0.00,,,0.00,VWS V14.01,2013-01-21 20:20:00,
2013-01-21 14:22:00,67.7,44.4,30.17,ENE,73,1.0,4.0,43,0.00,,,0.00,VWS V14.01,2013-01-21 20:22:00,
2013-01-21 14:25:00,68.7,44.1,30.17,East,90,5.0,9.0,41,0.00,,,0.00,VWS V14.01,2013-01-21 20:25:00,
2013-01-21 14:27:00,68.3,45.0,30.17,NNE,25,0.0,4.0,43,0.00,,,0.00,VWS V14.01,2013-01-21 20:27:00,
2013-01-21 14:30:00,68.8,43.5,30.17,ENE,78,3.0,7.0,40,0.00,,,0.00,VWS V14.01,2013-01-21 20:30:00,
2013-01-21 14:32:00,68.0,44.1,30.17,ESE,123,7.0,10.0,42,0.00,,,0.00,VWS V14.01,2013-01-21 20:32:00,
2013-01-21 14:35:00,68.6,43.3,30.17,East,97,2.0,7.0,40,0.00,,,0.00,VWS V14.01,2013-01-21 20:35:00,
2013-01-21 14:37:00,67.9,44.0,30.17,SE,140,4.0,9.0,42,0.00,,,0.00,VWS V14.01,2013-01-21 20:37:00,
2013-01-21 14:40:00,68.7,43.4,30.17,East,97,1.0,7.0,40,0.00,,,0.00,VWS V14.01,2013-01-21 20:40:00,
2013-01-21 14:42:00,67.7,43.8,30.17,SSE,160,3.0,4.0,42,0.00,,,0.00,VWS V14.01,2013-01-21 20:42:00,
2013-01-21 14:45:00,68.8,42.9,30.17,NNE,15,1.0,5.0,39,0.00,,,0.00,VWS V14.01,2013-01-21 20:45:00,
2013-01-21 14:47:00,68.0,43.5,30.17,SSE,151,5.0,10.0,41,0.00,,,0.00,VWS V14.01,2013-01-21 20:47:00,
2013-01-21 14:50:00,68.8,43.5,30.16,NNE,21,2.0,4.0,40,0.00,,,0.00,VWS V14.01,2013-01-21 20:50:00,
2013-01-21 14:52:00,67.9,44.0,30.17,ESE,117,4.0,7.0,42,0.00,,,0.00,VWS V14.01,2013-01-21 20:52:00,
2013-01-21 14:55:00,68.6,43.3,30.16,ENE,68,3.0,9.0,40,0.00,,,0.00,VWS V14.01,2013-01-21 20:55:00,
2013-01-21 14:56:00,68.0,44.1,30.17,SE,144,3.0,5.0,42,0.00,,,0.00,VWS V14.01,2013-01-21 20:56:00,
2013-01-21 15:00:00,68.4,43.8,30.16,ESE,106,2.0,4.0,41,0.00,,,0.00,VWS V14.01,2013-01-21 21:00:00,
2013-01-21 15:01:00,67.7,43.8,30.17,South,182,3.0,7.0,42,0.00,,,0.00,VWS V14.01,2013-01-21 21:01:00,
2013-01-21 15:05:00,68.7,43.4,30.16,ENE,68,3.0,7.0,40,0.00,,,0.00,VWS V14.01,2013-01-21 21:05:00,
2013-01-21 15:06:00,67.9,44.0,30.17,SSE,151,5.0,6.0,42,0.00,,,0.00,VWS V14.01,2013-01-21 21:06:00,
2013-01-21 15:10:00,68.6,44.0,30.16,NNE,21,5.0,5.0,41,0.00,,,0.00,VWS V14.01,2013-01-21 21:10:00,
2013-01-21 15:11:00,68.4,43.2,30.17,WSW,240,4.0,4.0,40,0.00,,,0.00,VWS V14.01,2013-01-21 21:11:00,
2013-01-21 15:15:00,68.5,43.9,30.16,NE,49,2.0,7.0,41,0.00,,,0.00,VWS V14.01,2013-01-21 21:15:00,
2013-01-21 15:16:00,68.5,43.2,30.17,East,87,1.0,5.0,40,0.00,,,0.00,VWS V14.01,2013-01-21 21:16:00,
2013-01-21 15:20:00,68.6,44.0,30.16,ENE,78,6.0,8.0,41,0.00,,,0.00,VWS V14.01,2013-01-21 21:20:00,
2013-01-21 15:21:00,68.4,43.8,30.17,NE,35,0.0,1.0,41,0.00,,,0.00,VWS V14.01,2013-01-21 21:21:00,
2013-01-21 15:25:00,68.4,43.8,30.16,NE,54,4.0,8.0,41,0.00,,,0.00,VWS V14.01,2013-01-21 21:25:00,
2013-01-21 15:26:00,68.8,44.2,30.17,ESE,109,4.0,6.0,41,0.00,,,0.00,VWS V14.01,2013-01-21 21:26:00,
2013-01-21 15:30:00,68.4,45.0,30.16,ENE,57,3.0,6.0,43,0.00,,,0.00,VWS V14.01,2013-01-21 21:30:00,
2013-01-21 15:31:00,68.8,43.5,30.17,NE,37,3.0,7.0,40,0.00,,,0.00,VWS V14.01,2013-01-21 21:31:00,
2013-01-21 15:35:00,68.3,45.0,30.16,NE,35,8.0,10.0,43,0.00,,,0.00,VWS V14.01,2013-01-21 21:35:00,
2013-01-21 15:36:00,68.8,44.2,30.17,SE,126,5.0,6.0,41,0.00,,,0.00,VWS V14.01,2013-01-21 21:36:00,
2013-01-21 15:40:00,67.8,45.1,30.16,NNE,18,8.0,10.0,44,0.00,,,0.00,VWS V14.01,2013-01-21 21:40:00,
2013-01-21 15:41:00,68.7,44.7,30.17,ESE,113,4.0,5.0,42,0.00,,,0.00,VWS V14.01,2013-01-21 21:41:00,
2013-01-21 15:45:00,67.6,45.5,30.16,NE,40,6.0,10.0,45,0.00,,,0.00,VWS V14.01,2013-01-21 21:45:00,
2013-01-21 15:46:00,68.7,42.8,30.17,NNE,15,0.0,1.0,39,0.00,,,0.00,VWS V14.01,2013-01-21 21:46:00,
2013-01-21 15:50:00,67.4,44.8,30.16,NE,40,8.0,12.0,44,0.00,,,0.00,VWS V14.01,2013-01-21 21:50:00,
2013-01-21 15:51:00,68.9,43.6,30.16,ENE,67,9.0,9.0,40,0.00,,,0.00,VWS V14.01,2013-01-21 21:51:00,
2013-01-21 15:55:00,67.2,44.6,30.16,NNE,21,6.0,10.0,44,0.00,,,0.00,VWS V14.01,2013-01-21 21:55:00,
2013-01-21 15:56:00,68.5,43.2,30.17,SE,132,3.0,4.0,40,0.00,,,0.00,VWS V14.01,2013-01-21 21:56:00,
2013-01-21 16:00:00,67.1,44.5,30.16,NNE,16,7.0,9.0,44,0.00,,,0.00,VWS V14.01,2013-01-21 22:00:00,
2013-01-21 16:01:00,68.5,43.9,30.16,NNE,26,3.0,4.0,41,0.00,,,0.00,VWS V14.01,2013-01-21 22:01:00,
2013-01-21 16:05:00,67.0,45.0,30.16,NNE,26,3.0,7.0,45,0.00,,,0.00,VWS V14.01,2013-01-21 22:05:00,
2013-01-21 16:06:00,68.6,44.0,30.16,NE,56,5.0,5.0,41,0.00,,,0.00,VWS V14.01,2013-01-21 22:06:00,
2013-01-21 16:10:00,66.9,44.9,30.16,NE,37,6.0,7.0,45,0.00,,,0.00,VWS V14.01,2013-01-21 22:10:00,
2013-01-21 16:11:00,68.6,44.0,30.16,North,9,5.0,7.0,41,0.00,,,0.00,VWS V14.01,2013-01-21 22:11:00,
2013-01-21 16:15:00,66.8,45.4,30.16,ENE,57,5.0,6.0,46,0.00,,,0.00,VWS V14.01,2013-01-21 22:15:00,
2013-01-21 16:16:00,68.5,44.5,30.16,NE,45,4.0,4.0,42,0.00,,,0.00,VWS V14.01,2013-01-21 22:16:00,
2013-01-21 16:20:00,66.5,45.1,30.16,NE,37,5.0,8.0,46,0.00,,,0.00,VWS V14.01,2013-01-21 22:20:00,
2013-01-21 16:21:00,68.6,44.0,30.16,East,82,7.0,7.0,41,0.00,,,0.00,VWS V14.01,2013-01-21 22:21:00,
2013-01-21 16:25:00,66.2,44.8,30.16,NNE,19,5.0,8.0,46,0.00,,,0.00,VWS V14.01,2013-01-21 22:25:00,
2013-01-21 16:26:00,68.4,44.4,30.16,East,85,6.0,6.0,42,0.00,,,0.00,VWS V14.01,2013-01-21 22:26:00,
2013-01-21 16:30:00,66.0,44.7,30.16,NNE,33,6.0,7.0,46,0.00,,,0.00,VWS V14.01,2013-01-21 22:30:00,
2013-01-21 16:31:00,68.5,45.1,30.16,NE,51,5.0,7.0,43,0.00,,,0.00,VWS V14.01,2013-01-21 22:31:00,
2013-01-21 16:35:00,65.7,44.9,30.16,NE,49,3.0,7.0,47,0.00,,,0.00,VWS V14.01,2013-01-21 22:35:00,
2013-01-21 16:36:00,68.1,45.4,30.16,NE,38,5.0,8.0,44,0.00,,,0.00,VWS V14.01,2013-01-21 22:36:00,
2013-01-21 16:40:00,65.4,45.2,30.16,ENE,66,5.0,6.0,48,0.00,,,0.00,VWS V14.01,2013-01-21 22:40:00,
2013-01-21 16:41:00,67.7,45.0,30.16,NNE,18,7.0,10.0,44,0.00,,,0.00,VWS V14.01,2013-01-21 22:41:00,
2013-01-21 16:45:00,65.0,45.4,30.16,ENE,75,4.0,7.0,49,0.00,,,0.00,VWS V14.01,2013-01-21 22:45:00,
2013-01-21 16:46:00,67.6,44.9,30.16,NE,42,8.0,9.0,44,0.00,,,0.00,VWS V14.01,2013-01-21 22:46:00,
2013-01-21 16:50:00,64.5,44.9,30.16,NE,52,4.0,6.0,49,0.00,,,0.00,VWS V14.01,2013-01-21 22:50:00,
2013-01-21 16:51:00,67.3,45.2,30.16,NE,37,7.0,10.0,45,0.00,,,0.00,VWS V14.01,2013-01-21 22:51:00,
2013-01-21 16:55:00,64.1,45.1,30.16,NE,42,4.0,5.0,50,0.00,,,0.00,VWS V14.01,2013-01-21 22:55:00,
2013-01-21 16:56:00,67.2,45.2,30.16,NNE,21,6.0,7.0,45,0.00,,,0.00,VWS V14.01,2013-01-21 22:56:00,
2013-01-21 17:00:00,63.7,45.2,30.17,NE,45,3.0,5.0,51,0.00,,,0.00,VWS V14.01,2013-01-21 23:00:00,
2013-01-21 17:01:00,67.1,45.1,30.16,NE,37,5.0,7.0,45,0.00,,,0.00,VWS V14.01,2013-01-21 23:01:00,
2013-01-21 17:05:00,63.3,45.4,30.17,NE,35,2.0,4.0,52,0.00,,,0.00,VWS V14.01,2013-01-21 23:05:00,
2013-01-21 17:06:00,67.0,45.0,30.16,NNE,19,3.0,5.0,45,0.00,,,0.00,VWS V14.01,2013-01-21 23:06:00,
2013-01-21 17:10:00,62.9,45.5,30.17,NE,40,3.0,6.0,53,0.00,,,0.00,VWS V14.01,2013-01-21 23:10:00,
2013-01-21 17:11:00,66.8,45.4,30.16,East,80,4.0,6.0,46,0.00,,,0.00,VWS V14.01,2013-01-21 23:11:00,
2013-01-21 17:15:00,62.5,45.2,30.17,ENE,66,3.0,5.0,53,0.00,,,0.00,VWS V14.01,2013-01-21 23:15:00,
2013-01-21 17:16:00,66.7,45.3,30.16,NNE,33,5.0,6.0,46,0.00,,,0.00,VWS V14.01,2013-01-21 23:16:00,
2013-01-21 17:20:00,62.1,45.3,30.17,NE,50,3.0,4.0,54,0.00,,,0.00,VWS V14.01,2013-01-21 23:20:00,
2013-01-21 17:21:00,66.4,45.0,30.16,NE,39,4.0,8.0,46,0.00,,,0.00,VWS V14.01,2013-01-21 23:21:00,
2013-01-21 17:25:00,61.6,45.3,30.17,ENE,63,3.0,4.0,55,0.00,,,0.00,VWS V14.01,2013-01-21 23:25:00,
2013-01-21 17:26:00,66.2,44.8,30.16,East,80,5.0,6.0,46,0.00,,,0.00,VWS V14.01,2013-01-21 23:26:00,
2013-01-21 17:30:00,61.1,45.3,30.17,ENE,57,3.0,4.0,56,0.00,,,0.00,VWS V14.01,2013-01-21 23:30:00,
2013-01-21 17:31:00,65.9,45.1,30.16,NE,46,4.0,6.0,47,0.00,,,0.00,VWS V14.01,2013-01-21 23:31:00,
2013-01-21 17:35:00,60.8,45.0,30.17,ENE,63,3.0,5.0,56,0.00,,,0.00,VWS V14.01,2013-01-21 23:35:00,
2013-01-21 17:36:00,65.6,44.8,30.16,NE,50,5.0,6.0,47,0.00,,,0.00,VWS V14.01,2013-01-21 23:36:00,
2013-01-21 17:40:00,60.3,45.0,30.17,East,80,3.0,5.0,57,0.00,,,0.00,VWS V14.01,2013-01-21 23:40:00,
2013-01-21 17:41:00,65.3,45.1,30.16,NE,45,5.0,7.0,48,0.00,,,0.00,VWS V14.01,2013-01-21 23:41:00,
2013-01-21 17:45:00,59.7,44.9,30.17,ENE,74,2.0,4.0,58,0.00,,,0.00,VWS V14.01,2013-01-21 23:45:00,
2013-01-21 17:46:00,64.9,45.3,30.16,NE,56,5.0,5.0,49,0.00,,,0.00,VWS V14.01,2013-01-21 23:46:00,
2013-01-21 17:50:00,59.3,45.0,30.17,ENE,57,2.0,3.0,59,0.00,,,0.00,VWS V14.01,2013-01-21 23:50:00,
2013-01-21 17:51:00,64.4,45.4,30.16,ENE,59,4.0,5.0,50,0.00,,,0.00,VWS V14.01,2013-01-21 23:51:00,
2013-01-21 17:55:00,58.9,45.1,30.18,ENE,72,2.0,3.0,60,0.00,,,0.00,VWS V14.01,2013-01-21 23:55:00,
2013-01-21 17:56:00,64.0,45.0,30.16,NE,43,3.0,4.0,50,0.00,,,0.00,VWS V14.01,2013-01-21 23:56:00,
2013-01-21 18:00:00,58.6,45.2,30.18,ENE,72,2.0,3.0,61,0.00,,,0.00,VWS V14.01,2013-01-22 00:00:00,
2013-01-21 18:01:00,63.5,45.1,30.17,NE,49,4.0,4.0,51,0.00,,,0.00,VWS V14.01,2013-01-22 00:01:00,
2013-01-21 18:05:00,58.3,44.9,30.18,ENE,78,2.0,3.0,61,0.00,,,0.00,VWS V14.01,2013-01-22 00:05:00,
2013-01-21 18:06:00,63.2,45.3,30.17,NE,46,5.0,5.0,52,0.00,,,0.00,VWS V14.01,2013-01-22 00:06:00,
2013-01-21 18:10:00,57.9,45.0,30.18,ENE,78,2.0,2.0,62,0.00,,,0.00,VWS V14.01,2013-01-22 00:10:00,
2013-01-21 18:11:00,62.8,45.4,30.17,NE,46,3.0,4.0,53,0.00,,,0.00,VWS V14.01,2013-01-22 00:11:00,
2013-01-21 18:15:00,57.7,44.8,30.18,ENE,74,3.0,4.0,62,0.00,,,0.00,VWS V14.01,2013-01-22 00:15:00,
2013-01-21 18:16:00,62.4,45.5,30.17,ENE,71,4.0,4.0,54,0.00,,,0.00,VWS V14.01,2013-01-22 00:16:00,
2013-01-21 18:20:00,57.6,45.1,30.18,NE,45,5.0,5.0,63,0.00,,,0.00,VWS V14.01,2013-01-22 00:20:00,
2013-01-21 18:21:00,62.0,45.2,30.17,ENE,59,2.0,3.0,54,0.00,,,0.00,VWS V14.01,2013-01-22 00:21:00,
2013-01-21 18:25:00,57.8,44.9,30.18,East,87,4.0,7.0,62,0.00,,,0.00,VWS V14.01,2013-01-22 00:25:00,
2013-01-21 18:26:00,61.5,45.2,30.17,ENE,61,3.0,4.0,55,0.00,,,0.00,VWS V14.01,2013-01-22 00:26:00,
2013-01-21 18:30:00,57.5,44.6,30.18,NE,56,2.0,5.0,62,0.00,,,0.00,VWS V14.01,2013-01-22 00:30:00,
2013-01-21 18:31:00,61.1,45.3,30.17,ENE,57,3.0,5.0,56,0.00,,,0.00,VWS V14.01,2013-01-22 00:31:00,
2013-01-21 18:35:00,57.4,44.5,30.19,East,81,4.0,6.0,62,0.00,,,0.00,VWS V14.01,2013-01-22 00:35:00,
2013-01-21 18:36:00,60.7,44.9,30.17,ENE,63,3.0,3.0,56,0.00,,,0.00,VWS V14.01,2013-01-22 00:36:00,
2013-01-21 18:40:00,57.5,44.2,30.19,ENE,66,6.0,8.0,61,0.00,,,0.00,VWS V14.01,2013-01-22 00:40:00,
2013-01-21 18:41:00,60.1,44.8,30.18,East,80,3.0,3.0,57,0.00,,,0.00,VWS V14.01,2013-01-22 00:41:00,
2013-01-21 18:45:00,57.7,43.9,30.19,NE,52,4.0,9.0,60,0.00,,,0.00,VWS V14.01,2013-01-22 00:45:00,
2013-01-21 18:46:00,59.6,45.3,30.17,ENE,74,3.0,3.0,59,0.00,,,0.00,VWS V14.01,2013-01-22 00:46:00,
2013-01-21 18:50:00,57.7,43.5,30.19,ENE,59,7.0,10.0,59,0.00,,,0.00,VWS V14.01,2013-01-22 00:50:00,
2013-01-21 18:51:00,59.2,44.9,30.18,ENE,59,2.0,3.0,59,0.00,,,0.00,VWS V14.01,2013-01-22 00:51:00,
2013-01-21 18:55:00,57.4,43.2,30.19,NE,52,5.0,9.0,59,0.00,,,0.00,VWS V14.01,2013-01-22 00:55:00,
2013-01-21 18:56:00,58.8,45.0,30.18,ENE,72,3.0,3.0,60,0.00,,,0.00,VWS V14.01,2013-01-22 00:56:00,
2013-01-21 19:00:00,57.2,43.0,30.19,ENE,71,6.0,10.0,59,0.00,,,0.00,VWS V14.01,2013-01-22 01:00:00,
2013-01-21 19:01:00,58.5,45.1,30.18,East,81,2.0,3.0,61,0.00,,,0.00,VWS V14.01,2013-01-22 01:01:00,
2013-01-21 19:05:00,57.0,42.8,30.19,ENE,66,7.0,9.0,59,0.00,,,0.00,VWS V14.01,2013-01-22 01:05:00,
2013-01-21 19:06:00,58.2,44.8,30.18,ENE,78,2.0,2.0,61,0.00,,,0.00,VWS V14.01,2013-01-22 01:06:00,
2013-01-21 19:10:00,56.8,42.6,30.19,NE,45,7.0,9.0,59,0.00,,,0.00,VWS V14.01,2013-01-22 01:10:00,
2013-01-21 19:11:00,57.8,44.9,30.18,ENE,60,2.0,2.0,62,0.00,,,0.00,VWS V14.01,2013-01-22 01:11:00,
2013-01-21 19:15:00,56.6,42.5,30.20,NE,46,5.0,7.0,59,0.00,,,0.00,VWS V14.01,2013-01-22 01:15:00,
2013-01-21 19:16:00,57.7,45.2,30.18,NE,52,4.0,5.0,63,0.00,,,0.00,VWS V14.01,2013-01-22 01:16:00,
2013-01-21 19:20:00,56.4,42.3,30.20,ENE,57,8.0,9.0,59,0.00,,,0.00,VWS V14.01,2013-01-22 01:20:00,
2013-01-21 19:21:00,57.7,45.2,30.18,ENE,57,5.0,7.0,63,0.00,,,0.00,VWS V14.01,2013-01-22 01:21:00,
2013-01-21 19:25:00,56.2,42.1,30.20,ENE,61,5.0,8.0,59,0.00,,,0.00,VWS V14.01,2013-01-22 01:25:00,
2013-01-21 19:26:00,57.7,44.8,30.18,ENE,73,2.0,4.0,62,0.00,,,0.00,VWS V14.01,2013-01-22 01:26:00,
2013-01-21 19:30:00,55.9,41.8,30.20,ENE,63,5.0,6.0,59,0.00,,,0.00,VWS V14.01,2013-01-22 01:30:00,
2013-01-21 19:31:00,57.4,44.5,30.19,NE,40,3.0,5.0,62,0.00,,,0.00,VWS V14.01,2013-01-22 01:31:00,
2013-01-21 19:35:00,55.8,41.7,30.20,ENE,78,2.0,8.0,59,0.00,,,0.00,VWS V14.01,2013-01-22 01:35:00,
2013-01-21 19:36:00,57.4,44.5,30.19,ENE,68,4.0,5.0,62,0.00,,,0.00,VWS V14.01,2013-01-22 01:36:00,
2013-01-21 19:40:00,55.6,41.5,30.20,ENE,67,5.0,8.0,59,0.00,,,0.00,VWS V14.01,2013-01-22 01:40:00,
2013-01-21 19:41:00,57.6,44.3,30.19,ENE,57,6.0,8.0,61,0.00,,,0.00,VWS V14.01,2013-01-22 01:41:00,
2013-01-21 19:45:00,55.4,41.3,30.20,ENE,72,3.0,6.0,59,0.00,,,0.00,VWS V14.01,2013-01-22 01:45:00,
2013-01-21 19:46:00,57.7,43.9,30.19,NE,53,5.0,7.0,60,0.00,,,0.00,VWS V14.01,2013-01-22 01:46:00,
2013-01-21 19:50:00,55.3,41.2,30.21,ENE,77,3.0,6.0,59,0.00,,,0.00,VWS V14.01,2013-01-22 01:50:00,
2013-01-21 19:51:00,57.6,43.4,30.19,NNE,32,4.0,7.0,59,0.00,,,0.00,VWS V14.01,2013-01-22 01:51:00,
2013-01-21 19:55:00,55.1,41.0,30.21,East,94,1.0,6.0,59,0.00,,,0.00,VWS V14.01,2013-01-22 01:55:00,
2013-01-21 19:56:00,57.4,43.2,30.19,ENE,59,8.0,9.0,59,0.00,,,0.00,VWS V14.01,2013-01-22 01:56:00,
2013-01-21 20:00:00,54.6,41.0,30.21,East,101,3.0,4.0,60,0.00,,,0.00,VWS V14.01,2013-01-22 02:00:00,
2013-01-21 20:01:00,57.2,43.0,30.19,NE,40,7.0,8.0,59,0.00,,,0.00,VWS V14.01,2013-01-22 02:01:00,
2013-01-21 20:05:00,54.4,41.2,30.21,East,101,3.0,4.0,61,0.00,,,0.00,VWS V14.01,2013-01-22 02:05:00,
2013-01-21 20:06:00,57.0,42.8,30.19,ENE,57,8.0,8.0,59,0.00,,,0.00,VWS V14.01,2013-01-22 02:06:00,
2013-01-21 20:10:00,54.4,41.2,30.21,ENE,71,1.0,4.0,61,0.00,,,0.00,VWS V14.01,2013-01-22 02:10:00,
2013-01-21 20:11:00,56.8,42.6,30.19,ENE,59,4.0,7.0,59,0.00,,,0.00,VWS V14.01,2013-01-22 02:11:00,
2013-01-21 20:15:00,54.0,40.9,30.21,ENE,63,3.0,4.0,61,0.00,,,0.00,VWS V14.01,2013-01-22 02:15:00,
2013-01-21 20:16:00,56.6,42.5,30.20,NE,42,5.0,6.0,59,0.00,,,0.00,VWS V14.01,2013-01-22 02:16:00,
2013-01-21 20:20:00,53.8,40.7,30.21,ENE,71,2.0,4.0,61,0.00,,,0.00,VWS V14.01,2013-01-22 02:20:00,
2013-01-21 20:21:00,56.4,42.3,30.20,ENE,75,5.0,8.0,59,0.00,,,0.00,VWS V14.01,2013-01-22 02:21:00,
2013-01-21 20:25:00,53.4,40.7,30.20,ENE,66,2.0,3.0,62,0.00,,,0.00,VWS V14.01,2013-01-22 02:25:00,
2013-01-21 20:26:00,56.2,42.1,30.20,ENE,60,3.0,6.0,59,0.00,,,0.00,VWS V14.01,2013-01-22 02:26:00,
2013-01-21 20:30:00,53.2,40.5,30.20,ENE,57,2.0,4.0,62,0.00,,,0.00,VWS V14.01,2013-01-22 02:30:00,
2013-01-21 20:31:00,55.9,41.8,30.20,ENE,75,4.0,5.0,59,0.00,,,0.00,VWS V14.01,2013-01-22 02:31:00,
2013-01-21 20:35:00,52.9,40.7,30.21,ENE,59,1.0,2.0,63,0.00,,,0.00,VWS V14.01,2013-01-22 02:35:00,
2013-01-21 20:36:00,55.7,41.6,30.20,East,90,5.0,6.0,59,0.00,,,0.00,VWS V14.01,2013-01-22 02:36:00,
2013-01-21 20:40:00,52.6,40.4,30.21,NE,52,1.0,1.0,63,0.00,,,0.00,VWS V14.01,2013-01-22 02:40:00,
2013-01-21 20:41:00,55.6,41.5,30.20,ENE,63,4.0,6.0,59,0.00,,,0.00,VWS V14.01,2013-01-22 02:41:00,
2013-01-21 20:45:00,52.6,40.4,30.21,NE,47,0.0,2.0,63,0.00,,,0.00,VWS V14.01,2013-01-22 02:45:00,
2013-01-21 20:46:00,55.4,41.3,30.20,East,80,4.0,6.0,59,0.00,,,0.00,VWS V14.01,2013-01-22 02:46:00,
2013-01-21 20:50:00,52.8,40.6,30.21,NE,35,1.0,4.0,63,0.00,,,0.00,VWS V14.01,2013-01-22 02:50:00,
2013-01-21 20:51:00,55.3,41.2,30.21,ENE,75,1.0,3.0,59,0.00,,,0.00,VWS V14.01,2013-01-22 02:51:00,
2013-01-21 20:55:00,52.6,40.0,30.21,ENE,77,2.0,3.0,62,0.00,,,0.00,VWS V14.01,2013-01-22 02:55:00,
2013-01-21 20:56:00,55.0,41.0,30.21,East,87,2.0,2.0,59,0.00,,,0.00,VWS V14.01,2013-01-22 02:56:00,
2013-01-21 21:00:00,52.5,39.9,30.21,NE,56,0.0,2.0,62,0.00,,,0.00,VWS V14.01,2013-01-22 03:00:00,
2013-01-21 21:01:00,54.5,40.9,30.21,East,100,3.0,3.0,60,0.00,,,0.00,VWS V14.01,2013-01-22 03:01:00,
2013-01-21 21:05:00,52.1,39.9,30.21,NE,53,0.0,0.0,63,0.00,,,0.00,VWS V14.01,2013-01-22 03:05:00,
2013-01-21 21:06:00,54.4,41.2,30.21,East,81,2.0,3.0,61,0.00,,,0.00,VWS V14.01,2013-01-22 03:06:00,
2013-01-21 21:10:00,51.8,39.6,30.21,NE,45,0.0,2.0,63,0.00,,,0.00,VWS V14.01,2013-01-22 03:10:00,
2013-01-21 21:11:00,54.3,41.2,30.21,NE,54,4.0,4.0,61,0.00,,,0.00,VWS V14.01,2013-01-22 03:11:00,
2013-01-21 21:15:00,51.7,39.9,30.21,NE,42,1.0,1.0,64,0.00,,,0.00,VWS V14.01,2013-01-22 03:15:00,
2013-01-21 21:16:00,53.9,40.8,30.21,ENE,70,2.0,4.0,61,0.00,,,0.00,VWS V14.01,2013-01-22 03:16:00,
2013-01-21 21:20:00,51.7,39.5,30.21,NE,35,0.0,3.0,63,0.00,,,0.00,VWS V14.01,2013-01-22 03:20:00,
2013-01-21 21:21:00,53.7,40.6,30.20,ENE,73,2.0,2.0,61,0.00,,,0.00,VWS V14.01,2013-01-22 03:21:00,
2013-01-21 21:25:00,51.5,39.3,30.21,NE,39,0.0,1.0,63,0.00,,,0.00,VWS V14.01,2013-01-22 03:25:00,
2013-01-21 21:26:00,53.4,40.7,30.20,ENE,71,2.0,3.0,62,0.00,,,0.00,VWS V14.01,2013-01-22 03:26:00,
2013-01-21 21:30:00,51.1,39.4,30.21,NE,39,0.0,1.0,64,0.00,,,0.00,VWS V14.01,2013-01-22 03:30:00,
2013-01-21 21:31:00,53.2,40.5,30.20,ENE,57,1.0,2.0,62,0.00,,,0.00,VWS V14.01,2013-01-22 03:31:00,
2013-01-21 21:35:00,50.6,38.9,30.21,NE,39,0.0,0.0,64,0.00,,,0.00,VWS V14.01,2013-01-22 03:35:00,
2013-01-21 21:36:00,52.8,40.6,30.21,ENE,59,0.0,1.0,63,0.00,,,0.00,VWS V14.01,2013-01-22 03:36:00,
2013-01-21 21:40:00,50.0,38.7,30.21,NE,39,0.0,0.0,65,0.00,,,0.00,VWS V14.01,2013-01-22 03:40:00,
2013-01-21 21:41:00,52.6,40.4,30.21,NE,52,0.0,1.0,63,0.00,,,0.00,VWS V14.01,2013-01-22 03:41:00,
2013-01-21 21:45:00,49.5,38.6,30.22,NE,39,0.0,0.0,66,0.00,,,0.00,VWS V14.01,2013-01-22 03:45:00,
2013-01-21 21:46:00,52.6,40.4,30.21,NE,47,0.0,1.0,63,0.00,,,0.00,VWS V14.01,2013-01-22 03:46:00,
2013-01-21 21:50:00,49.0,38.9,30.22,NE,39,0.0,0.0,68,0.00,,,0.00,VWS V14.01,2013-01-22 03:50:00,
2013-01-21 21:51:00,52.8,40.2,30.21,NE,40,1.0,2.0,62,0.00,,,0.00,VWS V14.01,2013-01-22 03:51:00,
2013-01-21 21:55:00,48.7,38.6,30.22,NE,39,0.0,0.0,68,0.00,,,0.00,VWS V14.01,2013-01-22 03:55:00,
2013-01-21 21:56:00,52.6,40.0,30.21,NE,54,1.0,2.0,62,0.00,,,0.00,VWS V14.01,2013-01-22 03:56:00,
2013-01-21 22:00:00,47.4,37.8,30.22,East,92,0.0,0.0,69,0.00,,,0.00,VWS V14.01,2013-01-22 04:00:00,
2013-01-21 22:01:00,52.5,39.9,30.21,NE,56,0.0,0.0,62,0.00,,,0.00,VWS V14.01,2013-01-22 04:01:00,
2013-01-21 22:05:00,46.7,38.2,30.22,ENE,63,0.0,0.0,72,0.00,,,0.00,VWS V14.01,2013-01-22 04:05:00,
2013-01-21 22:06:00,52.1,39.9,30.21,NE,52,0.0,0.0,63,0.00,,,0.00,VWS V14.01,2013-01-22 04:06:00,
2013-01-21 22:10:00,46.5,38.3,30.22,NE,50,0.0,0.0,73,0.00,,,0.00,VWS V14.01,2013-01-22 04:10:00,
2013-01-21 22:11:00,51.8,39.6,30.21,NE,42,0.0,1.0,63,0.00,,,0.00,VWS V14.01,2013-01-22 04:11:00,
2013-01-21 22:15:00,51.6,39.8,30.21,NE,35,1.0,1.0,64,0.00,,,0.00,VWS V14.01,2013-01-22 04:15:00,
2013-01-21 22:20:00,51.7,39.5,30.21,NE,35,1.0,1.0,63,0.00,,,0.00,VWS V14.01,2013-01-22 04:20:00,
2013-01-21 22:25:00,51.5,39.3,30.21,NE,39,0.0,1.0,63,0.00,,,0.00,VWS V14.01,2013-01-22 04:25:00,
2013-01-21 22:30:00,51.0,39.3,30.21,NE,39,0.0,0.0,64,0.00,,,0.00,VWS V14.01,2013-01-22 04:30:00,
2013-01-21 22:35:00,50.5,38.8,30.21,NE,39,0.0,0.0,64,0.00,,,0.00,VWS V14.01,2013-01-22 04:35:00,
2013-01-21 22:40:00,50.0,38.7,30.21,NE,39,0.0,0.0,65,0.00,,,0.00,VWS V14.01,2013-01-22 04:40:00,
2013-01-21 22:45:00,49.4,38.5,30.22,NE,39,0.0,0.0,66,0.00,,,0.00,VWS V14.01,2013-01-22 04:45:00,
2013-01-21 22:50:00,49.0,38.9,30.22,NE,39,0.0,0.0,68,0.00,,,0.00,VWS V14.01,2013-01-22 04:50:00,
2013-01-21 22:55:00,48.6,38.5,30.22,NE,40,0.0,0.0,68,0.00,,,0.00,VWS V14.01,2013-01-22 04:55:00,
2013-01-21 23:00:00,47.4,37.8,30.22,East,92,0.0,0.0,69,0.00,,,0.00,VWS V14.01,2013-01-22 05:00:00,
2013-01-21 23:01:00,47.2,37.9,30.22,ENE,63,0.0,0.0,70,0.00,,,0.00,VWS V14.01,2013-01-22 05:01:00,
2013-01-21 23:05:00,46.0,38.2,30.23,North,4,0.0,1.0,74,0.00,,,0.00,VWS V14.01,2013-01-22 05:05:00,
2013-01-21 23:06:00,46.7,38.2,30.22,ENE,63,0.0,0.0,72,0.00,,,0.00,VWS V14.01,2013-01-22 05:06:00,
2013-01-21 23:10:00,45.7,37.9,30.23,North,4,0.0,0.0,74,0.00,,,0.00,VWS V14.01,2013-01-22 05:10:00,
2013-01-21 23:11:00,46.4,38.2,30.22,NE,50,0.0,0.0,73,0.00,,,0.00,VWS V14.01,2013-01-22 05:11:00,
2013-01-21 23:15:00,45.3,37.5,30.23,North,4,0.0,0.0,74,0.00,,,0.00,VWS V14.01,2013-01-22 05:15:00,
2013-01-21 23:16:00,46.0,38.5,30.22,NNE,26,0.0,0.0,75,0.00,,,0.00,VWS V14.01,2013-01-22 05:16:00,
2013-01-21 23:20:00,45.0,37.6,30.23,North,4,0.0,0.0,75,0.00,,,0.00,VWS V14.01,2013-01-22 05:20:00,
2013-01-21 23:21:00,46.3,38.8,30.22,NNE,25,0.0,0.0,75,0.00,,,0.00,VWS V14.01,2013-01-22 05:21:00,
2013-01-21 23:25:00,44.4,37.0,30.23,North,4,0.0,0.0,75,0.00,,,0.00,VWS V14.01,2013-01-22 05:25:00,
2013-01-21 23:26:00,46.9,38.7,30.22,NNE,14,1.0,1.0,73,0.00,,,0.00,VWS V14.01,2013-01-22 05:26:00,
2013-01-21 23:30:00,43.7,36.6,30.23,North,4,0.0,0.0,76,0.00,,,0.00,VWS V14.01,2013-01-22 05:30:00,
2013-01-21 23:31:00,46.9,38.7,30.22,North,4,0.0,0.0,73,0.00,,,0.00,VWS V14.01,2013-01-22 05:31:00,
2013-01-21 23:35:00,43.5,37.1,30.23,North,4,0.0,0.0,78,0.00,,,0.00,VWS V14.01,2013-01-22 05:35:00,
2013-01-21 23:36:00,46.9,38.7,30.22,North,4,2.0,2.0,73,0.00,,,0.00,VWS V14.01,2013-01-22 05:36:00,
2013-01-21 23:40:00,44.1,37.7,30.23,North,3,1.0,1.0,78,0.00,,,0.00,VWS V14.01,2013-01-22 05:40:00,
2013-01-21 23:41:00,47.4,38.5,30.23,North,4,0.0,1.0,71,0.00,,,0.00,VWS V14.01,2013-01-22 05:41:00,
2013-01-21 23:45:00,44.5,37.8,30.23,North,2,1.0,1.0,77,0.00,,,0.00,VWS V14.01,2013-01-22 05:45:00,
2013-01-21 23:46:00,47.1,38.2,30.23,North,4,0.0,0.0,71,0.00,,,0.00,VWS V14.01,2013-01-22 05:46:00,
2013-01-21 23:50:00,44.7,37.3,30.23,North,4,0.0,1.0,75,0.00,,,0.00,VWS V14.01,2013-01-22 05:50:00,
2013-01-21 23:51:00,46.8,38.6,30.23,North,4,0.0,0.0,73,0.00,,,0.00,VWS V14.01,2013-01-22 05:51:00,
2013-01-21 23:55:00,43.6,36.5,30.23,North,4,0.0,1.0,76,0.00,,,0.00,VWS V14.01,2013-01-22 05:55:00,
2013-01-21 23:56:00,46.4,38.2,30.23,North,4,0.0,0.0,73,0.00,,,0.00,VWS V14.01,2013-01-22 05:56:00,